Time;durP1;ratioP1;P1;durP2;ratioP2;P2;SDS_P1;SDS_P2;PMS_P1;PMS_P2;Temp;Humidity;BMP_temperature;BMP_pressure;BME280_temperature;BME280_humidity;BME280_pressure;Samples;Min_cycle;Max_cycle;Signal;HPM_P1;HPM_P2
2023/05/13 00:00:39;;;;;;;1.53;1.43;;;;;;;20.59;59.14;97409.06;4936731;29;20292;-28
2023/05/13 00:03:05;;;;;;;1.50;1.40;;;;;;;20.59;59.35;97406.50;4936445;29;20654;-28
2023/05/13 00:05:32;;;;;;;1.60;1.50;;;;;;;20.58;59.34;97409.88;4936580;29;20241;-28
2023/05/13 00:08:01;;;;;;;1.50;1.40;;;;;;;20.57;59.42;97405.59;4936000;29;20221;-28
2023/05/13 00:10:27;;;;;;;1.37;1.27;;;;;;;20.57;59.28;97408.13;4936590;29;20293;-29
2023/05/13 00:12:54;;;;;;;2.20;1.30;;;;;;;20.57;59.50;97405.59;4936194;29;20715;-28
2023/05/13 00:15:21;;;;;;;1.40;1.30;;;;;;;20.57;59.35;97408.13;4942430;29;20202;-29
2023/05/13 00:17:47;;;;;;;1.20;1.20;;;;;;;20.56;59.74;97398.75;4936181;29;20232;-28
2023/05/13 00:20:14;;;;;;;1.50;1.40;;;;;;;20.57;59.32;97410.69;4936127;29;20209;-28
2023/05/13 00:22:41;;;;;;;1.50;1.40;;;;;;;20.57;59.36;97404.75;4936095;29;20208;-28
2023/05/13 00:25:08;;;;;;;1.20;1.20;;;;;;;20.57;59.52;97409.84;4936303;29;20607;-29
2023/05/13 00:27:34;;;;;;;1.43;1.33;;;;;;;20.55;58.85;97397.03;4936054;29;20231;-28
2023/05/13 00:30:01;;;;;;;1.43;1.37;;;;;;;20.55;59.44;97399.59;4934723;29;20229;-29
2023/05/13 00:32:27;;;;;;;1.50;1.40;;;;;;;20.56;59.22;97406.41;4935908;29;20576;-28
2023/05/13 00:34:54;;;;;;;1.23;1.23;;;;;;;20.55;59.40;97403.81;4935915;29;20232;-28
2023/05/13 00:37:20;;;;;;;1.30;1.30;;;;;;;20.55;59.52;97425.13;4939206;29;20220;-28
2023/05/13 00:39:47;;;;;;;1.60;1.50;;;;;;;20.53;59.49;97398.66;4940405;28;20295;-28
2023/05/13 00:42:14;;;;;;;1.50;1.40;;;;;;;20.54;59.50;97405.50;4935993;29;20211;-28
2023/05/13 00:44:40;;;;;;;1.20;1.20;;;;;;;20.53;59.37;97402.88;4935274;29;20224;-34
2023/05/13 00:47:07;;;;;;;1.40;1.30;;;;;;;20.53;59.40;97406.31;4935288;29;20243;-28
2023/05/13 00:49:34;;;;;;;1.50;1.40;;;;;;;20.53;59.34;97403.75;4939832;29;20448;-28
2023/05/13 00:52:00;;;;;;;1.23;1.23;;;;;;;20.54;58.98;97405.50;4944263;28;20204;-35
2023/05/13 00:54:27;;;;;;;1.43;1.40;;;;;;;20.55;59.43;97402.13;4935577;29;20692;-28
2023/05/13 00:56:55;;;;;;;1.30;1.30;;;;;;;20.58;59.35;97401.34;4943196;29;20226;-28
2023/05/13 00:59:23;;;;;;;1.40;1.30;;;;;;;20.51;59.40;97389.19;4940379;29;20201;-28
2023/05/13 01:01:58;;;;;;;1.33;1.30;;;;;;;20.59;59.33;97401.41;4927269;29;20201;-29
2023/05/13 01:04:50;;;;;;;1.23;1.20;;;;;;;20.58;59.51;97397.13;4929208;29;20204;-29
2023/05/13 01:07:17;;;;;;;1.40;1.30;;;;;;;20.58;59.29;97399.69;4933232;29;20221;-28
2023/05/13 01:10:08;;;;;;;1.40;1.30;;;;;;;20.59;59.12;97403.06;4935215;29;20212;-29
2023/05/13 01:12:39;;;;;;;1.27;1.27;;;;;;;20.58;59.27;97411.56;4932808;29;20416;-28
2023/05/13 01:15:08;;;;;;;1.40;1.30;;;;;;;20.58;59.51;97406.47;4937337;28;20316;-28
2023/05/13 01:17:49;;;;;;;1.50;1.40;;;;;;;20.58;59.21;97403.91;4934162;29;20355;-28
2023/05/13 01:20:19;;;;;;;1.20;1.20;;;;;;;20.57;59.33;97404.75;4932853;29;20205;-29
2023/05/13 01:22:46;;;;;;;1.50;1.40;;;;;;;20.56;59.70;97401.31;4935316;29;20676;-29
2023/05/13 01:25:13;;;;;;;1.40;1.30;;;;;;;20.55;59.18;97402.13;4934924;29;20197;-29
2023/05/13 01:27:39;;;;;;;1.20;1.20;;;;;;;20.56;59.42;97402.97;4934701;29;20284;-28
2023/05/13 01:30:07;;;;;;;1.57;1.43;;;;;;;20.55;59.35;97403.81;4915945;29;20210;-34
2023/05/13 01:32:34;;;;;;;1.47;1.37;;;;;;;20.55;59.56;97409.81;4934880;29;20197;-28
2023/05/13 01:35:01;;;;;;;1.33;1.30;;;;;;;20.52;59.24;97403.72;4934836;29;20659;-28
2023/05/13 01:37:28;;;;;;;1.60;1.50;;;;;;;20.55;59.50;97403.81;4914503;29;20222;-28
2023/05/13 01:39:54;;;;;;;1.40;1.30;;;;;;;20.54;59.56;97408.03;4936625;29;20208;-28
2023/05/13 01:42:24;;;;;;;1.50;1.40;;;;;;;20.54;59.43;97408.03;4934653;29;20211;-31
2023/05/13 01:44:50;;;;;;;1.70;1.60;;;;;;;20.53;59.12;97411.41;4933503;29;20268;-28
2023/05/13 01:47:17;;;;;;;1.23;1.23;;;;;;;20.54;59.48;97405.50;4934234;29;20671;-32
2023/05/13 01:49:43;;;;;;;1.30;1.30;;;;;;;20.54;59.58;97412.31;4934914;29;20256;-31
2023/05/13 01:52:10;;;;;;;1.23;1.23;;;;;;;20.53;59.41;97413.09;4934653;29;20201;-28
2023/05/13 01:54:36;;;;;;;1.40;1.30;;;;;;;20.52;59.49;97407.13;4934688;29;20248;-28
2023/05/13 01:57:03;;;;;;;1.40;1.30;;;;;;;20.53;59.49;97410.53;4934128;29;20239;-28
2023/05/13 01:59:30;;;;;;;1.20;1.20;;;;;;;20.53;59.73;97416.53;4934778;29;20586;-28
2023/05/13 02:01:56;;;;;;;1.30;1.27;;;;;;;20.55;59.16;97408.91;4934217;29;20201;-28
2023/05/13 02:04:23;;;;;;;1.37;1.27;;;;;;;20.57;59.34;97413.25;4934524;29;20193;-28
2023/05/13 02:06:49;;;;;;;1.57;1.47;;;;;;;20.59;59.24;97410.75;4934093;29;20719;-28
2023/05/13 02:09:16;;;;;;;1.57;1.47;;;;;;;20.59;59.41;97418.41;4938334;29;20223;-28
2023/05/13 02:11:44;;;;;;;1.67;1.57;;;;;;;20.57;59.34;97408.13;4934345;29;20599;-29
2023/05/13 02:14:10;;;;;;;1.50;1.40;;;;;;;20.58;59.13;97407.34;4934071;29;20229;-29
2023/05/13 02:16:37;;;;;;;1.50;1.40;;;;;;;20.58;59.16;97407.34;4933991;29;20221;-28
2023/05/13 02:19:04;;;;;;;1.60;1.50;;;;;;;20.57;59.28;97409.84;4934383;29;20276;-28
2023/05/13 02:21:31;;;;;;;1.50;1.40;;;;;;;20.57;59.32;97413.25;4934155;29;20256;-29
2023/05/13 02:23:57;;;;;;;1.43;1.40;;;;;;;20.56;59.23;97406.41;4934411;29;20197;-28
2023/05/13 02:26:24;;;;;;;1.40;1.30;;;;;;;20.56;59.26;97408.09;4933726;29;20228;-28
2023/05/13 02:28:50;;;;;;;1.50;1.40;;;;;;;20.55;59.37;97412.34;4933998;29;20197;-29
2023/05/13 02:31:17;;;;;;;1.43;1.37;;;;;;;20.55;59.06;97412.34;4933765;29;20719;-38
2023/05/13 02:33:43;;;;;;;1.50;1.40;;;;;;;20.55;59.36;97408.91;4939943;29;20228;-28
2023/05/13 02:36:10;;;;;;;1.20;1.20;;;;;;;20.54;59.37;97405.50;4935850;28;20344;-29
2023/05/13 02:38:36;;;;;;;1.30;1.30;;;;;;;20.54;59.11;97409.75;4934193;29;20205;-28
2023/05/13 02:41:03;;;;;;;1.60;1.50;;;;;;;20.54;59.42;97409.75;4933857;29;20313;-28
2023/05/13 02:43:31;;;;;;;1.60;1.50;;;;;;;20.54;59.34;97415.69;4933990;29;20659;-28
2023/05/13 02:45:57;;;;;;;1.50;1.40;;;;;;;20.53;59.22;97408.88;4935077;29;20283;-28
2023/05/13 02:48:24;;;;;;;1.50;1.40;;;;;;;20.53;59.45;97406.31;4931944;29;20220;-28
2023/05/13 02:50:50;;;;;;;1.60;1.50;;;;;;;20.53;59.29;97408.88;4942377;29;20267;-28
2023/05/13 02:53:17;;;;;;;1.33;1.30;;;;;;;20.52;59.40;97401.16;4938791;28;20205;-28
2023/05/13 02:55:44;;;;;;;1.37;1.30;;;;;;;20.52;59.23;97401.16;4937549;29;20221;-29
2023/05/13 02:58:10;;;;;;;1.23;1.23;;;;;;;20.51;59.40;97399.41;4937768;29;20252;-28
2023/05/13 03:00:37;;;;;;;1.50;1.40;;;;;;;20.50;59.45;97408.78;4937660;29;20205;-28
2023/05/13 03:03:03;;;;;;;1.60;1.50;;;;;;;20.51;59.34;97409.63;4937975;29;20212;-29
2023/05/13 03:05:30;;;;;;;1.57;1.47;;;;;;;20.52;59.19;97408.81;4937655;29;20205;-29
2023/05/13 03:07:57;;;;;;;1.50;1.40;;;;;;;20.54;59.37;97415.69;4937300;29;20231;-28
2023/05/13 03:10:23;;;;;;;1.70;1.60;;;;;;;20.55;59.24;97407.25;4937192;29;20241;-29
2023/05/13 03:12:50;;;;;;;1.50;1.40;;;;;;;20.57;59.35;97407.28;4937418;29;20731;-28
2023/05/13 03:15:16;;;;;;;1.50;1.40;;;;;;;20.57;59.84;97410.69;4937213;29;20221;-29
2023/05/13 03:17:43;;;;;;;2.00;1.50;;;;;;;20.58;59.04;97411.56;4937437;29;20271;-28
2023/05/13 03:20:10;;;;;;;1.70;1.60;;;;;;;20.57;59.16;97415.78;4937341;29;20205;-29
2023/05/13 03:22:39;;;;;;;1.70;1.60;;;;;;;20.57;59.05;97409.84;4937165;29;20743;-28
2023/05/13 03:25:06;;;;;;;1.50;1.40;;;;;;;20.56;59.14;97416.63;4937003;29;20209;-29
2023/05/13 03:27:33;;;;;;;1.50;1.40;;;;;;;20.54;59.21;97413.16;4945202;29;20308;-29
2023/05/13 03:29:59;;;;;;;1.80;1.70;;;;;;;20.46;59.24;97411.19;4937462;29;20586;-29
2023/05/13 03:32:29;;;;;;;1.50;1.40;;;;;;;20.54;59.28;97414.84;4936874;29;20240;-28
2023/05/13 03:34:56;;;;;;;1.73;1.63;;;;;;;20.54;59.33;97413.16;4935843;29;20750;-28
2023/05/13 03:37:23;;;;;;;1.70;1.60;;;;;;;20.55;59.25;97420.00;4936663;29;20225;-29
2023/05/13 03:39:50;;;;;;;1.67;1.57;;;;;;;20.54;59.09;97435.28;4936898;29;20205;-28
2023/05/13 03:42:17;;;;;;;1.50;1.40;;;;;;;20.54;59.36;97418.25;4936759;29;20296;-28
2023/05/13 03:44:43;;;;;;;1.60;1.50;;;;;;;20.53;59.26;97424.19;4936852;29;20197;-29
2023/05/13 03:47:10;;;;;;;1.70;1.60;;;;;;;20.53;59.12;97421.63;4936379;29;20315;-29
2023/05/13 03:49:36;;;;;;;1.60;1.50;;;;;;;20.52;59.11;97414.78;4936914;29;20856;-28
2023/05/13 03:52:03;;;;;;;1.70;1.60;;;;;;;20.52;59.13;97427.53;4941572;29;20288;-29
2023/05/13 03:54:29;;;;;;;1.60;1.50;;;;;;;20.53;59.18;97424.19;4936352;29;20700;-28
2023/05/13 03:56:56;;;;;;;1.63;1.53;;;;;;;20.53;58.98;97423.31;4936622;29;20287;-28
2023/05/13 03:59:23;;;;;;;1.50;1.40;;;;;;;20.52;59.29;97422.44;4936788;29;20312;-29
2023/05/13 04:01:49;;;;;;;1.60;1.50;;;;;;;20.54;59.18;97430.19;4936288;29;20209;-31
2023/05/13 04:04:16;;;;;;;1.70;1.60;;;;;;;20.51;59.37;97428.38;4936607;29;20208;-28
2023/05/13 04:06:42;;;;;;;1.60;1.50;;;;;;;20.51;59.29;97430.03;4935911;29;20225;-29
2023/05/13 04:09:09;;;;;;;1.47;1.40;;;;;;;20.50;59.34;97429.19;4936722;29;20212;-29
2023/05/13 04:11:36;;;;;;;1.80;1.70;;;;;;;20.51;59.38;97442.81;4936452;29;20291;-28
2023/05/13 04:14:02;;;;;;;1.60;1.50;;;;;;;20.51;59.30;97441.13;4936437;29;20292;-28
2023/05/13 04:16:29;;;;;;;1.50;1.40;;;;;;;20.53;59.30;97438.63;4936187;29;20221;-28
2023/05/13 04:18:55;;;;;;;1.80;1.70;;;;;;;20.55;59.23;97435.31;4936322;29;20217;-29
2023/05/13 04:21:22;;;;;;;1.47;1.37;;;;;;;20.56;58.52;97436.16;4942398;29;20237;-29
2023/05/13 04:23:48;;;;;;;1.93;1.83;;;;;;;20.57;59.38;97448.16;4937793;29;20656;-31
2023/05/13 04:26:15;;;;;;;1.57;1.47;;;;;;;20.56;59.15;97446.38;4935737;29;20276;-29
2023/05/13 04:28:42;;;;;;;1.60;1.50;;;;;;;20.57;59.38;97440.47;4936334;29;20672;-28
2023/05/13 04:31:08;;;;;;;1.53;1.43;;;;;;;20.55;59.07;97445.53;4936072;29;20220;-28
2023/05/13 04:33:35;;;;;;;1.70;1.57;;;;;;;20.48;59.08;97435.06;4936216;29;20585;-29
2023/05/13 04:36:01;;;;;;;1.60;1.50;;;;;;;20.55;58.88;97447.22;4935633;29;20232;-28
2023/05/13 04:38:28;;;;;;;1.60;1.50;;;;;;;20.55;59.03;97454.88;4935705;29;20244;-28
2023/05/13 04:40:54;;;;;;;1.63;1.53;;;;;;;20.54;59.09;97448.03;4936038;29;20205;-28
2023/05/13 04:43:21;;;;;;;1.60;1.50;;;;;;;20.54;58.92;97456.53;4935953;29;20425;-28
2023/05/13 04:45:48;;;;;;;1.77;1.67;;;;;;;20.55;59.07;97465.09;4935633;29;20292;-28
2023/05/13 04:48:15;;;;;;;1.50;1.40;;;;;;;20.53;59.18;97464.16;4943498;29;20217;-28
2023/05/13 04:50:45;;;;;;;1.70;1.60;;;;;;;20.52;59.15;97460.72;4935701;29;20602;-29
2023/05/13 04:53:13;;;;;;;1.77;1.67;;;;;;;20.53;59.24;97466.72;4935701;29;20607;-28
2023/05/13 04:55:39;;;;;;;1.90;1.80;;;;;;;20.52;59.27;97470.94;4939484;29;20227;-29
2023/05/13 04:58:06;;;;;;;1.70;1.60;;;;;;;20.52;59.14;97470.09;4935455;29;20697;-31
2023/05/13 05:00:32;;;;;;;1.80;1.70;;;;;;;20.52;59.09;97473.50;4935569;29;20208;-28
2023/05/13 05:02:59;;;;;;;1.63;1.53;;;;;;;20.52;59.10;97473.50;4935403;29;20205;-28
2023/05/13 05:05:25;;;;;;;1.90;1.80;;;;;;;20.52;59.45;97478.59;4935597;29;20574;-29
2023/05/13 05:07:52;;;;;;;1.80;1.70;;;;;;;20.52;59.00;97478.59;4934130;29;20216;-35
2023/05/13 05:10:19;;;;;;;1.80;1.70;;;;;;;20.51;59.21;97481.97;4936350;29;20339;-29
2023/05/13 05:12:46;;;;;;;1.70;1.60;;;;;;;20.50;59.30;97479.38;4941251;28;20205;-29
2023/05/13 05:15:15;;;;;;;1.80;1.70;;;;;;;20.51;59.14;97486.22;4935103;29;20508;-28
2023/05/13 05:17:42;;;;;;;2.03;1.60;;;;;;;20.50;59.16;97485.38;4937631;29;20225;-29
2023/05/13 05:20:09;;;;;;;1.70;1.60;;;;;;;20.51;59.05;97492.19;4935352;29;20247;-28
2023/05/13 05:22:36;;;;;;;1.77;1.67;;;;;;;20.54;59.23;97486.34;4927437;29;20209;-29
2023/05/13 05:25:03;;;;;;;1.93;1.83;;;;;;;20.55;59.24;97488.94;4935040;29;20205;-28
2023/05/13 05:27:30;;;;;;;1.80;1.70;;;;;;;20.56;59.24;97492.34;4934742;29;20217;-28
2023/05/13 05:29:56;;;;;;;2.10;2.00;;;;;;;20.56;58.35;97489.78;4935138;29;20405;-28
2023/05/13 05:32:23;;;;;;;1.60;1.50;;;;;;;20.56;59.10;97495.78;4934664;29;20589;-29
2023/05/13 05:34:50;;;;;;;1.80;1.70;;;;;;;20.56;59.28;97500.00;4934910;29;20763;-29
2023/05/13 05:37:16;;;;;;;1.77;1.67;;;;;;;20.55;58.91;97500.84;4933477;29;20287;-29
2023/05/13 05:39:43;;;;;;;1.67;1.57;;;;;;;20.54;58.63;97497.41;4934793;29;20240;-28
2023/05/13 05:42:10;;;;;;;1.80;1.70;;;;;;;20.54;58.86;97507.63;4934875;29;20516;-28
2023/05/13 05:44:36;;;;;;;1.60;1.50;;;;;;;20.54;59.19;97505.06;4935018;29;20620;-28
2023/05/13 05:47:03;;;;;;;2.10;1.70;;;;;;;20.54;58.95;97511.88;4949900;23;20243;-28
2023/05/13 05:49:29;;;;;;;1.63;1.53;;;;;;;20.53;59.05;97505.00;4934535;29;20211;-28
2023/05/13 05:51:56;;;;;;;1.67;1.57;;;;;;;20.54;59.09;97510.16;4940411;29;20211;-27
2023/05/13 05:54:23;;;;;;;1.80;1.70;;;;;;;20.52;59.07;97505.84;4935461;29;20216;-27
2023/05/13 05:56:49;;;;;;;1.70;1.60;;;;;;;20.53;59.26;97505.88;4937599;29;20259;-28
2023/05/13 05:59:16;;;;;;;1.70;1.60;;;;;;;20.53;59.12;97500.78;4945394;29;20243;-26
2023/05/13 06:01:42;;;;;;;1.80;1.70;;;;;;;20.51;58.61;97504.06;4943547;29;20232;-28
2023/05/13 06:04:09;;;;;;;1.80;1.70;;;;;;;20.52;59.05;97511.78;4940626;29;20216;-27
2023/05/13 06:06:36;;;;;;;1.70;1.60;;;;;;;20.52;59.21;97503.28;4948686;28;20275;-27
2023/05/13 06:09:02;;;;;;;1.80;1.70;;;;;;;20.51;58.99;97512.63;4940910;28;20212;-27
2023/05/13 06:11:29;;;;;;;1.70;1.60;;;;;;;20.52;59.14;97516.03;4940319;29;20692;-27
2023/05/13 06:13:56;;;;;;;1.77;1.67;;;;;;;20.50;59.31;97531.31;4946487;29;20235;-28
2023/05/13 06:16:23;;;;;;;1.80;1.70;;;;;;;20.51;59.24;97515.16;4952040;28;20231;-27
2023/05/13 06:18:49;;;;;;;2.00;1.90;;;;;;;20.49;59.32;97511.69;4939837;29;20292;-27
2023/05/13 06:21:16;;;;;;;1.80;1.70;;;;;;;20.47;59.09;97512.47;4934208;29;20205;-27
2023/05/13 06:23:42;;;;;;;1.60;1.50;;;;;;;20.48;59.02;97514.19;4937360;28;20332;-27
2023/05/13 06:26:09;;;;;;;1.90;1.80;;;;;;;20.50;59.26;97517.66;4947327;29;20202;-27
2023/05/13 06:28:36;;;;;;;1.97;1.87;;;;;;;20.51;58.94;97525.38;4934465;28;20655;-26
2023/05/13 06:31:02;;;;;;;1.70;1.60;;;;;;;20.53;59.01;97521.19;4935320;29;20209;-28
2023/05/13 06:33:29;;;;;;;1.67;1.57;;;;;;;20.55;58.93;97522.13;4934112;29;20299;-28
2023/05/13 06:35:55;;;;;;;1.90;1.80;;;;;;;20.56;59.61;97521.31;4947604;29;20212;-27
2023/05/13 06:38:22;;;;;;;1.90;1.80;;;;;;;20.58;59.03;97518.81;4936688;29;20316;-28
2023/05/13 06:40:49;;;;;;;2.00;1.90;;;;;;;20.56;59.24;97521.31;4938200;29;20307;-27
2023/05/13 06:43:16;;;;;;;1.77;1.67;;;;;;;20.55;58.65;97519.59;4939385;29;20317;-25
2023/05/13 06:45:43;;;;;;;1.70;1.60;;;;;;;20.55;59.11;97523.81;4935200;29;20201;-28
2023/05/13 06:48:10;;;;;;;1.77;1.67;;;;;;;20.55;58.82;97521.25;4945699;28;20236;-28
2023/05/13 06:50:36;;;;;;;1.80;1.70;;;;;;;20.54;59.03;97520.38;4937587;29;20213;-27
2023/05/13 06:53:03;;;;;;;1.80;1.70;;;;;;;20.53;59.09;97525.44;4940424;29;20208;-27
2023/05/13 06:55:29;;;;;;;1.63;1.53;;;;;;;20.54;58.76;97530.59;4940858;28;20713;-28
2023/05/13 06:57:56;;;;;;;1.70;1.60;;;;;;;20.53;58.93;97528.88;4938439;29;20228;-27
2023/05/13 07:00:22;;;;;;;1.70;1.60;;;;;;;20.53;59.02;97528.88;4942454;29;20559;-27
2023/05/13 07:02:49;;;;;;;1.80;1.70;;;;;;;20.49;58.76;97529.56;4932416;29;20633;-27
2023/05/13 07:05:16;;;;;;;1.70;1.60;;;;;;;20.52;59.05;97531.38;4942008;29;20197;-28
2023/05/13 07:07:43;;;;;;;2.60;1.87;;;;;;;20.53;59.07;97530.53;4933756;29;20220;-27
2023/05/13 07:10:09;;;;;;;1.80;1.70;;;;;;;20.52;59.11;97528.81;4939552;29;20259;-28
2023/05/13 07:12:36;;;;;;;1.90;1.80;;;;;;;20.52;59.47;97528.81;4944351;29;20205;-27
2023/05/13 07:15:03;;;;;;;1.73;1.63;;;;;;;20.50;59.24;97528.75;4938891;28;20700;-27
2023/05/13 07:17:30;;;;;;;1.70;1.60;;;;;;;20.51;59.13;97548.34;4949294;28;20315;-28
2023/05/13 07:19:57;;;;;;;1.90;1.80;;;;;;;20.52;58.99;97533.91;4947100;29;20208;-27
2023/05/13 07:22:23;;;;;;;1.70;1.60;;;;;;;20.51;59.05;97538.16;4944236;29;20213;-27
2023/05/13 07:24:50;;;;;;;1.70;1.60;;;;;;;20.39;59.11;97516.44;4941596;29;20576;-27
2023/05/13 07:27:16;;;;;;;1.87;1.77;;;;;;;20.49;59.16;97539.78;4937961;29;20264;-27
2023/05/13 07:29:43;;;;;;;1.73;1.63;;;;;;;20.50;58.92;97541.53;4937327;29;20211;-28
2023/05/13 07:32:10;;;;;;;1.80;1.70;;;;;;;20.51;59.04;97532.16;4940665;28;20243;-28
2023/05/13 07:34:36;;;;;;;1.73;1.63;;;;;;;20.52;58.95;97537.31;4942681;28;20212;-27
2023/05/13 07:37:03;;;;;;;1.73;1.63;;;;;;;20.54;59.04;97532.28;4943852;28;20233;-26
2023/05/13 07:39:30;;;;;;;1.80;1.70;;;;;;;20.56;58.95;97535.75;4950696;29;20205;-28
2023/05/13 07:41:57;;;;;;;1.90;1.80;;;;;;;20.56;59.11;97530.63;4937196;29;20201;-28
2023/05/13 07:44:24;;;;;;;1.70;1.60;;;;;;;20.56;58.75;97536.63;4943612;29;20204;-27
2023/05/13 07:46:52;;;;;;;1.90;1.80;;;;;;;20.56;58.96;97536.63;4944610;28;20319;-26
2023/05/13 07:49:19;;;;;;;1.80;1.70;;;;;;;20.56;58.91;97538.31;4948778;29;20200;-27
2023/05/13 07:51:46;;;;;;;1.83;1.73;;;;;;;20.55;58.69;97542.56;4935521;29;20660;-28
2023/05/13 07:54:12;;;;;;;4.13;2.00;;;;;;;20.55;58.99;97541.69;4951861;29;20263;-28
2023/05/13 07:56:39;;;;;;;1.80;1.70;;;;;;;20.54;59.01;97532.28;4943511;29;20308;-28
2023/05/13 07:59:06;;;;;;;1.90;1.80;;;;;;;20.54;59.18;97542.50;4949823;28;20205;-26
2023/05/13 08:01:32;;;;;;;1.90;1.80;;;;;;;20.53;59.15;97538.19;4951944;29;20293;-27
2023/05/13 08:03:59;;;;;;;1.90;1.80;;;;;;;20.53;58.56;97539.06;4941204;29;20231;-28
2023/05/13 08:06:26;;;;;;;1.70;1.60;;;;;;;20.53;58.88;97540.75;4944222;28;20287;-27
2023/05/13 08:08:52;;;;;;;1.90;1.80;;;;;;;20.53;59.01;97540.75;4944313;29;20201;-28
2023/05/13 08:11:20;;;;;;;1.80;1.70;;;;;;;20.53;58.68;97545.84;4948879;29;20347;-28
2023/05/13 08:13:47;;;;;;;1.90;1.77;;;;;;;20.53;59.02;97548.41;4935981;29;20208;-27
2023/05/13 08:16:13;;;;;;;1.77;1.67;;;;;;;20.52;58.83;97539.88;4948672;28;20320;-28
2023/05/13 08:18:40;;;;;;;1.80;1.70;;;;;;;20.52;58.15;97546.69;4938989;29;20284;-27
2023/05/13 08:21:06;;;;;;;1.60;1.50;;;;;;;20.53;58.63;97543.31;4937605;29;20677;-27
2023/05/13 08:23:35;;;;;;;2.00;1.90;;;;;;;20.51;58.97;97542.38;4942143;29;20219;-27
2023/05/13 08:26:11;;;;;;;2.13;1.97;;;;;;;20.52;59.13;97554.34;4950558;29;20285;-27
2023/05/13 08:28:38;;;;;;;1.80;1.70;;;;;;;20.50;59.08;97548.31;4951031;29;20204;-28
2023/05/13 08:31:04;;;;;;;1.83;1.73;;;;;;;20.50;59.23;97549.19;4955427;29;20204;-28
2023/05/13 08:33:31;;;;;;;1.83;1.73;;;;;;;20.49;59.19;97544.88;4942115;28;20609;-27
2023/05/13 08:35:58;;;;;;;1.70;1.60;;;;;;;20.50;59.16;97545.75;4942192;29;20755;-28
2023/05/13 08:38:25;;;;;;;1.90;1.80;;;;;;;20.50;59.05;97544.09;4939719;29;20224;-27
2023/05/13 08:40:51;;;;;;;1.90;1.80;;;;;;;20.54;59.00;97547.63;4941466;29;20684;-27
2023/05/13 08:43:18;;;;;;;1.63;1.53;;;;;;;20.55;58.91;97552.78;4945844;29;20205;-28
2023/05/13 08:45:46;;;;;;;2.10;2.00;;;;;;;20.56;58.77;97553.63;4939749;29;20645;-28
2023/05/13 08:48:15;;;;;;;1.83;1.73;;;;;;;20.56;58.86;97554.50;4941913;28;20588;-27
2023/05/13 08:50:43;;;;;;;1.90;1.80;;;;;;;20.54;58.68;97550.16;4944348;28;20236;-27
2023/05/13 08:53:10;;;;;;;1.93;1.83;;;;;;;20.55;58.84;97554.44;4935423;29;20209;-27
2023/05/13 08:55:38;;;;;;;2.07;1.83;;;;;;;20.54;58.88;97557.81;4939658;29;20224;-27
2023/05/13 08:58:05;;;;;;;1.60;1.50;;;;;;;20.55;58.95;97565.53;4937447;29;20730;-26
2023/05/13 09:00:33;;;;;;;1.80;1.70;;;;;;;20.55;58.82;97564.66;4940007;28;20299;-27
2023/05/13 09:03:00;;;;;;;1.73;1.63;;;;;;;20.51;58.74;97560.25;4947066;28;20208;-27
2023/05/13 09:05:27;;;;;;;2.00;1.90;;;;;;;20.54;58.92;97560.38;4944455;28;20201;-27
2023/05/13 09:07:53;;;;;;;1.93;1.83;;;;;;;20.50;58.80;97555.97;4934658;29;20225;-27
2023/05/13 09:10:20;;;;;;;2.00;1.90;;;;;;;20.53;58.82;97564.59;4926214;29;20205;-27
2023/05/13 09:12:46;;;;;;;1.73;1.63;;;;;;;20.53;58.97;97561.19;4954181;29;20679;-27
2023/05/13 09:15:17;;;;;;;1.70;1.60;;;;;;;20.53;59.00;97567.16;4946462;28;20208;-27
2023/05/13 09:17:51;;;;;;;1.80;1.70;;;;;;;20.52;58.93;97562.00;4942590;28;20232;-27
2023/05/13 09:20:18;;;;;;;1.73;1.63;;;;;;;20.52;58.88;97574.75;4947418;29;20204;-27
2023/05/13 09:22:49;;;;;;;1.90;1.80;;;;;;;20.52;59.00;97567.94;4944793;28;20570;-28
2023/05/13 09:25:16;;;;;;;1.83;1.73;;;;;;;20.52;59.10;97562.00;4941448;28;20583;-27
2023/05/13 09:27:47;;;;;;;1.70;1.60;;;;;;;20.49;58.97;97557.63;4943911;28;20228;-27
2023/05/13 09:30:14;;;;;;;1.83;1.73;;;;;;;20.52;59.12;97562.84;4943849;29;20228;-28
2023/05/13 09:32:41;;;;;;;1.80;1.70;;;;;;;20.50;59.09;97561.06;4940854;28;20625;-28
2023/05/13 09:35:15;;;;;;;2.53;1.60;;;;;;;20.51;58.96;97566.22;4942340;29;20216;-26
2023/05/13 09:37:45;;;;;;;1.80;1.70;;;;;;;20.49;58.97;97560.19;4939775;29;20248;-28
2023/05/13 09:40:16;;;;;;;1.70;1.60;;;;;;;20.49;58.95;97557.63;4946377;28;20789;-28
2023/05/13 09:42:43;;;;;;;1.70;1.60;;;;;;;20.51;59.06;97562.78;4941770;29;20205;-28
2023/05/13 09:45:11;;;;;;;1.80;1.70;;;;;;;20.51;59.23;97557.69;4938287;29;20707;-27
2023/05/13 09:47:37;;;;;;;1.97;1.87;;;;;;;20.53;58.93;97556.06;4933275;29;20599;-28
2023/05/13 09:50:05;;;;;;;1.87;1.77;;;;;;;20.56;58.81;97556.16;4937189;29;20213;-27
2023/05/13 09:52:32;;;;;;;1.90;1.80;;;;;;;20.56;58.88;97559.59;4941789;29;20239;-27
2023/05/13 09:54:58;;;;;;;1.80;1.70;;;;;;;20.55;58.91;97555.31;4929426;29;20208;-28
2023/05/13 09:57:28;;;;;;;1.73;1.63;;;;;;;20.57;58.81;97555.38;4939925;29;20723;-27
2023/05/13 10:00:04;;;;;;;1.70;1.60;;;;;;;20.56;58.91;97562.16;4939530;28;20224;-28
2023/05/13 10:02:30;;;;;;;1.50;1.40;;;;;;;20.50;58.70;97550.84;4939230;28;20213;-28
2023/05/13 10:04:57;;;;;;;1.70;1.60;;;;;;;20.55;58.46;97557.88;4945278;29;20239;-27
2023/05/13 10:07:24;;;;;;;1.73;1.63;;;;;;;20.55;58.73;97562.97;4957602;28;20220;-26
2023/05/13 10:09:53;;;;;;;1.73;1.63;;;;;;;20.52;58.68;97562.00;4938756;28;20239;-27
2023/05/13 10:12:20;;;;;;;1.70;1.60;;;;;;;20.52;58.87;97564.56;4937822;29;20650;-27
2023/05/13 10:14:51;;;;;;;1.60;1.50;;;;;;;20.53;58.74;97569.72;4945032;29;20826;-27
2023/05/13 10:17:22;;;;;;;1.80;1.70;;;;;;;20.52;58.80;97565.41;4936799;29;20321;-27
2023/05/13 10:19:49;;;;;;;1.77;1.67;;;;;;;20.52;58.88;97560.28;4940964;28;20211;-27
2023/05/13 10:22:20;;;;;;;1.87;1.77;;;;;;;20.48;59.10;97562.69;4944996;29;20291;-27
2023/05/13 10:24:47;;;;;;;1.80;1.70;;;;;;;20.51;58.82;97563.69;4926366;29;20211;-27
2023/05/13 10:27:13;;;;;;;1.80;1.70;;;;;;;20.50;58.72;97561.06;4947935;28;20324;-28
2023/05/13 10:29:40;;;;;;;1.90;1.80;;;;;;;20.48;59.15;97563.56;4920946;29;20209;-28
2023/05/13 10:32:06;;;;;;;1.70;1.60;;;;;;;20.52;58.62;97567.09;4926180;29;20624;-26
2023/05/13 10:34:33;;;;;;;1.60;1.50;;;;;;;20.47;58.28;97549.09;4941802;29;20208;-27
2023/05/13 10:37:22;;;;;;;1.80;1.70;;;;;;;20.50;58.87;97559.41;4940215;29;20228;-27
2023/05/13 10:39:52;;;;;;;1.70;1.60;;;;;;;20.50;58.97;97550.84;4944160;28;20679;-28
2023/05/13 10:42:45;;;;;;;1.80;1.70;;;;;;;20.49;59.00;97549.97;4939960;28;20230;-27
2023/05/13 10:45:11;;;;;;;1.90;1.80;;;;;;;20.49;59.22;97541.47;4933278;29;20710;-27
2023/05/13 10:47:38;;;;;;;1.77;1.67;;;;;;;20.49;58.87;97554.25;4920045;29;20223;-27
2023/05/13 10:50:25;;;;;;;1.83;1.73;;;;;;;20.52;59.10;97554.34;4933998;29;20209;-27
2023/05/13 10:52:55;;;;;;;1.87;1.77;;;;;;;20.54;58.94;97553.56;4943420;29;20739;-27
2023/05/13 10:55:22;;;;;;;2.10;1.70;;;;;;;20.56;58.76;97554.50;4934069;29;20205;-27
2023/05/13 10:58:10;;;;;;;1.70;1.60;;;;;;;20.55;58.69;97551.91;4946646;29;20224;-27
2023/05/13 11:00:41;;;;;;;1.67;1.57;;;;;;;20.56;58.71;97545.97;4940849;29;20205;-27
2023/05/13 11:03:27;;;;;;;1.80;1.70;;;;;;;20.54;58.94;97548.47;4938628;29;20232;-27
2023/05/13 11:06:13;;;;;;;1.87;1.73;;;;;;;20.54;58.60;97540.81;4940960;28;20200;-28
2023/05/13 11:08:41;;;;;;;1.87;1.77;;;;;;;20.54;58.59;97545.06;4939033;29;20627;-27
2023/05/13 11:11:21;;;;;;;1.70;1.60;;;;;;;20.53;58.79;97546.72;4946087;28;20201;-28
2023/05/13 11:13:54;;;;;;;1.60;1.50;;;;;;;20.53;58.67;97546.72;4943507;28;20201;-28
2023/05/13 11:16:22;;;;;;;1.67;1.57;;;;;;;20.52;58.86;97544.97;4943003;29;20228;-27
2023/05/13 11:18:52;;;;;;;1.70;1.60;;;;;;;20.36;59.08;97522.31;4954357;29;20201;-27
2023/05/13 11:21:29;;;;;;;1.70;1.60;;;;;;;20.52;58.76;97539.88;4945654;29;20686;-27
2023/05/13 11:23:57;;;;;;;1.63;1.53;;;;;;;20.52;58.80;97546.69;4946012;29;20201;-27
2023/05/13 11:26:24;;;;;;;1.80;1.70;;;;;;;20.35;59.07;97515.47;4941233;29;20645;-28
2023/05/13 11:29:04;;;;;;;2.00;1.90;;;;;;;20.51;58.80;97550.91;4945286;29;20231;-27
2023/05/13 11:31:47;;;;;;;1.57;1.47;;;;;;;20.51;58.86;97553.47;4937185;29;20205;-27
2023/05/13 11:34:18;;;;;;;1.80;1.70;;;;;;;20.51;58.68;97553.47;4942672;29;20688;-27
2023/05/13 11:36:54;;;;;;;1.80;1.70;;;;;;;20.51;58.82;97556.00;4939023;29;20758;-27